Time;durP1;ratioP1;P1;durP2;ratioP2;P2;SDS_P1;SDS_P2;PMS_P1;PMS_P2;Temp;Humidity;BMP_temperature;BMP_pressure;BME280_temperature;BME280_humidity;BME280_pressure;Samples;Min_cycle;Max_cycle;Signal;HPM_P1;HPM_P2
2022/08/12 00:45:03;;;;;;;6.80;2.20;;;;;;;17.28;60.47;99532.09;237038;1196;139431;-59
2022/08/12 00:50:16;;;;;;;4.10;2.30;;;;;;;17.25;60.34;99525.11;237058;1196;139651;-60
2022/08/12 00:55:20;;;;;;;4.60;2.20;;;;;;;17.22;60.35;99536.66;236967;1196;139220;-63
2022/08/12 01:00:25;;;;;;;5.20;2.30;;;;;;;17.19;60.55;99531.03;237191;1196;139110;-60
2022/08/12 01:11:28;;;;;;;5.90;2.50;;;;;;;17.08;60.68;99523.45;236846;1196;139645;-60
2022/08/12 01:16:31;;;;;;;4.40;2.40;;;;;;;17.05;60.82;99522.95;236960;1196;138821;-61
2022/08/12 01:22:05;;;;;;;7.70;2.50;;;;;;;17.03;60.78;99523.18;237117;1195;140000;-59
2022/08/12 01:27:10;;;;;;;5.70;2.30;;;;;;;17.02;60.78;99529.55;237035;1196;139835;-62
2022/08/12 01:32:14;;;;;;;6.70;2.30;;;;;;;16.99;60.59;99522.77;236972;1196;140525;-57
2022/08/12 01:37:21;;;;;;;5.40;2.30;;;;;;;16.93;60.74;99523.23;236940;1196;139108;-58
2022/08/12 01:42:27;;;;;;;5.00;1.90;;;;;;;16.87;60.64;99526.08;237066;1196;140967;-63
2022/08/12 01:47:45;;;;;;;4.20;2.20;;;;;;;16.76;60.52;99517.02;236876;1196;139356;-67
2022/08/12 01:53:09;;;;;;;5.00;2.10;;;;;;;16.70;60.63;99515.00;236906;1196;139238;-60
2022/08/12 01:59:45;;;;;;;2.40;1.80;;;;;;;16.64;60.64;99514.64;236891;1196;139779;-60
2022/08/12 02:15:57;;;;;;;7.00;2.30;;;;;;;16.77;61.34;99501.08;236990;1196;139429;-64
2022/08/12 02:21:05;;;;;;;6.90;2.70;;;;;;;16.83;60.96;99499.34;237038;1196;139511;-61
2022/08/12 02:26:08;;;;;;;13.70;2.60;;;;;;;16.77;60.85;99492.45;237123;1196;139630;-64
2022/08/12 02:31:12;;;;;;;10.30;2.70;;;;;;;16.70;60.70;99491.75;236968;1196;140136;-58
2022/08/12 02:36:15;;;;;;;8.10;2.40;;;;;;;16.60;60.64;99493.94;237072;1196;140421;-61
2022/08/12 02:41:20;;;;;;;5.60;2.30;;;;;;;16.51;60.58;99490.55;237110;1196;139286;-64
2022/08/12 02:46:30;;;;;;;9.10;2.50;;;;;;;16.41;60.66;99492.63;236521;1196;139084;-63
2022/08/12 02:51:41;;;;;;;7.30;2.10;;;;;;;16.33;60.75;99491.48;236962;1196;140023;-61
2022/08/12 02:56:44;;;;;;;6.20;2.70;;;;;;;16.30;60.64;99495.81;237006;1196;140121;-61
2022/08/12 03:01:55;;;;;;;6.70;2.00;;;;;;;16.26;60.89;99497.88;236958;1196;139187;-61
2022/08/12 03:07:07;;;;;;;3.40;2.20;;;;;;;16.25;60.93;99491.70;237060;1196;139789;-59
2022/08/12 03:12:12;;;;;;;7.00;2.40;;;;;;;16.21;60.89;99489.52;237290;1196;139736;-59
2022/08/12 03:17:42;;;;;;;5.30;2.10;;;;;;;16.15;60.96;99490.67;237109;1196;139273;-59
2022/08/12 03:22:46;;;;;;;6.60;2.30;;;;;;;16.11;61.16;99482.44;236912;1196;139594;-61
2022/08/12 03:27:54;;;;;;;6.20;2.50;;;;;;;16.09;61.37;99485.23;236792;1197;139318;-61
2022/08/12 03:33:01;;;;;;;8.70;2.90;;;;;;;16.09;61.15;99483.83;236648;1196;139731;-61
2022/08/12 03:38:07;;;;;;;6.80;2.60;;;;;;;16.09;61.21;99484.86;237082;1196;139793;-58
2022/08/12 04:04:56;;;;;;;5.20;2.80;;;;;;;16.13;61.59;99501.80;236536;1196;139560;-67
2022/08/12 04:10:00;;;;;;;7.80;2.90;;;;;;;16.12;61.86;99501.34;236978;1196;140284;-60
2022/08/12 04:15:03;;;;;;;6.30;3.00;;;;;;;16.17;61.86;99493.42;237049;1196;139979;-59
2022/08/12 04:20:08;;;;;;;6.50;2.70;;;;;;;16.25;62.04;99496.32;236902;1196;139660;-62
2022/08/12 04:25:12;;;;;;;14.50;3.40;;;;;;;16.37;62.25;99498.14;236925;1196;139053;-62
2022/08/12 04:30:15;;;;;;;7.80;3.10;;;;;;;16.45;62.44;99503.01;237095;1196;139226;-61
2022/08/12 04:35:36;;;;;;;7.40;3.30;;;;;;;16.54;62.35;99508.40;236995;1196;139489;-65
2022/08/12 04:40:39;;;;;;;62.60;50.90;;;;;;;16.63;62.59;99506.44;237002;1196;139085;-63
2022/08/12 04:45:42;;;;;;;9.60;6.70;;;;;;;16.79;62.87;99508.02;237181;1196;139450;-64
2022/08/12 04:50:45;;;;;;;9.20;3.80;;;;;;;17.16;63.21;99515.29;237327;1195;139444;-61
2022/08/12 04:55:51;;;;;;;4.20;3.80;;;;;;;17.50;63.18;99519.48;237050;1196;140515;-63
2022/08/12 05:00:54;;;;;;;91.70;77.00;;;;;;;17.86;63.15;99519.53;237128;1196;139289;-62
2022/08/12 05:05:57;;;;;;;27.70;17.80;;;;;;;18.39;63.18;99516.05;236985;1196;139813;-64
2022/08/12 05:11:00;;;;;;;20.80;12.80;;;;;;;18.79;62.71;99515.67;236975;1196;139697;-61
2022/08/12 05:16:07;;;;;;;12.70;10.20;;;;;;;19.07;62.04;99513.86;237225;1195;140024;-56
2022/08/12 05:21:11;;;;;;;16.00;5.10;;;;;;;19.37;61.80;99509.05;237266;1195;139646;-57
2022/08/12 05:26:14;;;;;;;63.70;44.90;;;;;;;19.54;61.10;99514.27;236968;1196;140528;-62
2022/08/12 05:31:16;;;;;;;16.00;10.80;;;;;;;19.67;60.83;99520.20;236933;1196;143622;-63
2022/08/12 05:36:42;;;;;;;16.70;8.60;;;;;;;19.90;60.70;99527.73;237125;1196;140386;-64
2022/08/12 05:41:45;;;;;;;34.40;23.70;;;;;;;20.10;60.39;99523.50;237099;1196;140405;-62
2022/08/12 05:46:48;;;;;;;17.60;11.30;;;;;;;20.21;60.00;99523.98;237188;1195;140377;-64
2022/08/12 05:51:51;;;;;;;11.90;7.50;;;;;;;20.21;59.66;99520.53;237297;1195;140214;-65
2022/08/12 05:56:54;;;;;;;12.50;7.40;;;;;;;20.29;59.80;99516.30;236908;1196;140316;-64
2022/08/12 06:02:08;;;;;;;10.00;4.60;;;;;;;20.33;59.60;99518.98;236995;1195;140181;-61
2022/08/12 06:07:15;;;;;;;10.50;5.20;;;;;;;20.38;59.55;99525.45;237179;1196;139977;-65
2022/08/12 06:12:38;;;;;;;8.10;4.70;;;;;;;20.45;59.58;99527.95;237403;1195;140325;-64
2022/08/12 06:17:42;;;;;;;38.70;29.30;;;;;;;20.54;59.54;99530.39;237092;1196;139459;-64
2022/08/12 06:22:50;;;;;;;12.50;8.90;;;;;;;20.70;59.47;99541.48;237045;1196;139800;-63
2022/08/12 06:27:58;;;;;;;9.10;6.30;;;;;;;20.80;59.25;99544.08;237263;1195;139452;-61
2022/08/12 06:33:11;;;;;;;6.90;5.60;;;;;;;20.84;59.11;99541.78;237128;1195;139577;-62
2022/08/12 06:38:26;;;;;;;7.70;5.60;;;;;;;20.90;59.07;99544.02;236923;1196;139968;-63
2022/08/12 06:43:29;;;;;;;281.10;228.50;;;;;;;20.91;58.75;99543.91;236781;1196;140555;-64
2022/08/12 06:48:57;;;;;;;25.90;21.40;;;;;;;20.78;58.52;99543.79;237097;1196;140070;-64
2022/08/12 06:54:01;;;;;;;11.80;9.40;;;;;;;20.71;58.70;99541.59;237155;1196;140686;-64
2022/08/12 06:59:04;;;;;;;8.30;7.00;;;;;;;20.72;58.80;99543.44;237363;1196;139316;-64
2022/08/12 07:04:07;;;;;;;12.80;7.10;;;;;;;20.74;58.86;99539.31;237225;1195;139976;-63
2022/08/12 07:09:31;;;;;;;68.10;51.60;;;;;;;20.85;59.16;99538.55;237109;1196;141384;-59
2022/08/12 07:14:57;;;;;;;14.80;10.00;;;;;;;20.97;59.19;99540.14;237220;1195;140852;-58
2022/08/12 07:20:00;;;;;;;11.90;8.40;;;;;;;21.07;59.18;99539.73;237158;1196;141169;-59
2022/08/12 07:30:36;;;;;;;9.80;8.30;;;;;;;21.19;59.20;99539.77;237051;1196;139357;-59
2022/08/12 07:35:49;;;;;;;11.10;8.40;;;;;;;21.18;59.11;99536.39;236933;1196;139628;-60
2022/08/12 07:40:55;;;;;;;14.00;7.90;;;;;;;21.19;59.04;99533.80;237340;1196;139766;-60
2022/08/12 07:45:59;;;;;;;9.10;7.10;;;;;;;21.10;58.86;99530.75;237052;1196;139986;-57
2022/08/12 07:51:03;;;;;;;12.60;7.20;;;;;;;21.07;59.15;99528.46;237111;1196;139200;-56
2022/08/12 07:56:08;;;;;;;32.80;21.40;;;;;;;21.19;59.54;99527.36;237168;1195;141458;-59
2022/08/12 08:01:14;;;;;;;42.70;29.80;;;;;;;21.40;59.69;99523.77;237231;1195;140740;-59
2022/08/12 08:06:17;;;;;;;20.40;17.40;;;;;;;21.61;59.39;99513.58;237271;1195;138864;-58
2022/08/12 08:16:45;;;;;;;13.30;7.60;;;;;;;21.73;58.81;99523.75;236982;1196;139985;-59
2022/08/12 08:21:49;;;;;;;9.40;7.40;;;;;;;21.70;58.38;99526.57;237085;1196;139579;-59
2022/08/12 08:26:55;;;;;;;8.20;5.70;;;;;;;21.67;58.55;99525.09;237190;1195;139440;-59
2022/08/12 08:32:00;;;;;;;30.00;24.10;;;;;;;21.75;58.59;99522.81;237352;1195;139348;-58
2022/08/12 08:37:03;;;;;;;14.80;10.10;;;;;;;21.81;58.45;99525.63;237278;1195;139599;-58
2022/08/12 08:47:42;;;;;;;24.30;18.10;;;;;;;21.92;58.09;99528.32;237114;1195;139701;-58
2022/08/12 08:52:47;;;;;;;13.80;8.80;;;;;;;21.99;57.93;99529.59;237129;1195;140718;-58
2022/08/12 08:57:53;;;;;;;8.10;5.50;;;;;;;22.10;57.98;99532.63;237163;1195;139572;-57
2022/08/12 09:02:56;;;;;;;17.70;11.00;;;;;;;22.24;57.95;99532.36;237210;1195;139952;-58
2022/08/12 09:08:03;;;;;;;11.10;7.10;;;;;;;22.36;57.85;99536.89;237091;1195;139558;-59
2022/08/12 09:13:28;;;;;;;9.60;6.90;;;;;;;22.43;57.57;99541.61;237174;1195;139797;-57
2022/08/12 09:18:51;;;;;;;11.50;6.90;;;;;;;22.53;57.61;99541.85;237249;1195;139430;-58
2022/08/12 09:23:59;;;;;;;9.70;5.70;;;;;;;22.66;57.66;99547.34;237302;1195;139462;-60
2022/08/12 09:29:09;;;;;;;8.30;5.70;;;;;;;22.75;57.47;99548.61;237049;1195;139505;-58
2022/08/12 09:34:14;;;;;;;8.00;6.60;;;;;;;22.83;57.46;99546.30;237030;1195;140563;-59
2022/08/12 09:39:31;;;;;;;10.40;6.00;;;;;;;22.93;57.22;99548.31;237154;1195;138983;-58
2022/08/12 09:50:21;;;;;;;12.40;8.20;;;;;;;23.10;56.71;99538.02;237157;1195;139485;-57
2022/08/12 09:55:26;;;;;;;8.70;6.50;;;;;;;23.19;56.67;99532.70;237188;1196;141135;-58
2022/08/12 10:00:53;;;;;;;7.30;5.00;;;;;;;23.27;56.32;99521.66;237144;1195;139731;-59
2022/08/12 10:06:01;;;;;;;13.10;5.10;;;;;;;23.31;56.04;99525.04;237182;1196;142371;-57
2022/08/12 10:17:05;;;;;;;10.40;9.00;;;;;;;23.58;55.84;99507.48;237113;1195;141528;-57
2022/08/12 10:22:14;;;;;;;;;;;;;;;23.80;55.69;99519.08;237270;1195;139731;-58
2022/08/12 10:33:08;;;;;;;6.90;4.60;;;;;;;24.09;55.09;99500.77;237008;1196;139328;-59
2022/08/12 10:38:20;;;;;;;7.00;4.60;;;;;;;24.24;54.84;99488.76;236970;1195;139540;-59
2022/08/12 10:43:41;;;;;;;5.00;4.40;;;;;;;24.42;54.76;99480.96;237382;1195;139766;-59
2022/08/12 10:48:59;;;;;;;6.80;4.80;;;;;;;24.61;54.69;99480.55;237326;1195;140475;-58
2022/08/12 10:54:26;;;;;;;6.50;4.30;;;;;;;24.81;54.32;99476.06;237217;1195;139322;-59
2022/08/12 10:59:30;;;;;;;9.60;4.30;;;;;;;24.96;53.68;99478.08;237320;1195;139033;-57
2022/08/12 11:04:58;;;;;;;14.50;13.20;;;;;;;25.07;53.38;99471.77;237480;1195;139296;-57
2022/08/12 11:10:21;;;;;;;5.80;5.20;;;;;;;25.25;53.53;99463.70;237175;1195;139289;-58
2022/08/12 11:15:28;;;;;;;4.50;3.90;;;;;;;25.46;53.22;99454.00;237022;1195;139424;-57
2022/08/12 11:20:53;;;;;;;7.50;3.90;;;;;;;25.62;52.73;99450.45;237229;1195;139363;-60
2022/08/12 11:26:00;;;;;;;5.40;3.90;;;;;;;25.75;52.50;99447.25;237214;1195;139819;-59
2022/08/12 11:31:08;;;;;;;39.40;35.30;;;;;;;25.86;52.04;99443.09;237309;1195;140118;-58
2022/08/12 11:36:17;;;;;;;8.20;4.20;;;;;;;25.91;51.86;99435.51;237355;1195;139758;-59
2022/08/12 11:41:24;;;;;;;9.10;4.30;;;;;;;26.06;51.67;99429.95;237125;1196;139690;-59
2022/08/12 11:46:35;;;;;;;5.80;4.10;;;;;;;26.11;51.23;99431.09;237080;1196;139280;-59
2022/08/12 11:51:39;;;;;;;8.30;4.30;;;;;;;26.25;51.40;99433.15;236986;1195;140268;-59
2022/08/12 11:56:41;;;;;;;4.50;3.90;;;;;;;26.49;51.32;99433.86;237393;1195;140958;-59
2022/08/12 12:02:02;;;;;;;4.30;3.90;;;;;;;26.68;50.90;99431.86;237145;1195;140048;-59
2022/08/12 12:07:07;;;;;;;5.40;3.70;;;;;;;26.65;50.38;99434.19;237199;1196;140109;-58
2022/08/12 12:12:13;;;;;;;7.60;4.80;;;;;;;26.71;50.23;99429.69;237163;1195;152633;-59
2022/08/12 12:17:18;;;;;;;53.00;43.90;;;;;;;26.78;49.93;99424.40;237295;1195;139815;-58
2022/08/12 12:22:23;;;;;;;6.80;4.70;;;;;;;26.98;49.88;99422.89;237104;1195;139729;-59
2022/08/12 12:27:49;;;;;;;6.40;3.50;;;;;;;26.99;49.53;99419.24;237345;1195;140169;-58
2022/08/12 12:33:09;;;;;;;4.70;3.80;;;;;;;27.19;49.60;99406.17;237136;1195;139785;-58
2022/08/12 12:38:20;;;;;;;29.50;26.40;;;;;;;27.34;49.28;99401.38;236988;1196;141104;-59
2022/08/12 12:43:27;;;;;;;4.60;4.00;;;;;;;27.50;49.01;99397.75;237000;1196;140320;-57
2022/08/12 12:48:54;;;;;;;3.60;3.20;;;;;;;27.76;48.76;99384.62;237375;1195;139232;-59
2022/08/12 12:53:58;;;;;;;4.40;3.50;;;;;;;28.01;48.38;99379.35;236991;1195;141165;-59
2022/08/12 12:59:09;;;;;;;9.30;6.20;;;;;;;28.27;47.94;99375.20;236865;1196;140040;-57
2022/08/12 13:04:33;;;;;;;4.60;3.90;;;;;;;28.43;47.25;99364.70;236994;1195;140041;-58
2022/08/12 13:09:36;;;;;;;3.80;3.40;;;;;;;28.52;46.89;99360.61;236766;1196;140404;-58
2022/08/12 13:14:39;;;;;;;3.90;3.30;;;;;;;28.63;46.71;99365.22;237077;1195;140315;-59
2022/08/12 13:19:42;;;;;;;3.70;2.90;;;;;;;28.89;46.40;99361.58;237346;1195;139308;-59
2022/08/12 13:24:57;;;;;;;5.20;2.90;;;;;;;29.06;45.86;99350.69;237243;1195;140529;-58
2022/08/12 13:30:08;;;;;;;3.70;3.00;;;;;;;29.20;45.41;99344.27;236838;1196;140024;-59
2022/08/12 13:35:15;;;;;;;4.60;2.70;;;;;;;29.24;45.07;99343.73;236886;1196;140174;-59
2022/08/12 13:40:38;;;;;;;32.70;29.30;;;;;;;29.38;44.85;99338.89;237023;1195;140644;-58
2022/08/12 13:45:41;;;;;;;3.70;2.90;;;;;;;29.56;44.34;99341.81;237361;1195;139994;-58
2022/08/12 13:50:44;;;;;;;4.30;3.00;;;;;;;29.71;43.82;99340.20;237232;1195;140112;-55
2022/08/12 13:55:50;;;;;;;4.00;2.70;;;;;;;29.75;43.39;99335.94;236947;1195;140033;-56
2022/08/12 14:01:04;;;;;;;3.90;2.40;;;;;;;29.77;42.96;99334.91;236951;1196;139452;-58
2022/08/12 14:06:19;;;;;;;6.50;2.40;;;;;;;29.92;42.94;99334.89;237131;1196;140150;-57
2022/08/12 14:11:22;;;;;;;;;;;;;;;30.26;42.76;99328.69;237246;1195;139540;-57
2022/08/12 14:16:30;;;;;;;5.20;2.20;;;;;;;30.61;42.11;99327.08;237293;1195;126068;-56
2022/08/12 14:21:52;;;;;;;3.80;2.40;;;;;;;30.97;41.85;99318.71;236859;1196;139609;-58
2022/08/12 14:27:06;;;;;;;6.80;2.60;;;;;;;31.22;41.10;99317.92;236924;1196;139969;-58
2022/08/12 14:32:12;;;;;;;4.20;2.70;;;;;;;31.27;40.54;99311.29;236940;1196;141061;-57
2022/08/12 14:37:21;;;;;;;2.70;2.50;;;;;;;31.23;39.91;99307.84;237326;1195;140574;-57
2022/08/12 14:42:44;;;;;;;3.90;3.60;;;;;;;31.03;39.62;99296.66;237272;1195;139187;-57
2022/08/12 14:47:52;;;;;;;5.90;3.00;;;;;;;30.66;39.20;99291.90;237195;1195;139782;-58
2022/08/12 14:53:00;;;;;;;3.20;2.80;;;;;;;30.31;39.58;99291.61;237433;1195;139133;-57
2022/08/12 14:58:24;;;;;;;4.90;3.00;;;;;;;29.87;39.44;99281.41;237128;1196;140235;-57
2022/08/12 15:03:28;;;;;;;4.70;3.20;;;;;;;29.33;39.57;99285.77;237245;1195;139328;-56
2022/08/12 15:08:51;;;;;;;3.50;3.20;;;;;;;28.80;39.91;99284.02;237098;1195;139314;-58
2022/08/12 15:13:54;;;;;;;5.40;3.80;;;;;;;28.38;40.37;99289.77;236892;1196;140286;-56
2022/08/12 15:18:57;;;;;;;3.90;3.60;;;;;;;28.09;40.77;99285.35;237005;1196;140828;-58
2022/08/12 15:24:02;;;;;;;9.90;4.20;;;;;;;27.88;41.19;99278.75;237096;1195;139580;-57
2022/08/12 15:29:08;;;;;;;19.80;16.80;;;;;;;27.64;41.38;99275.91;237362;1195;140219;-55
2022/08/12 15:34:12;;;;;;;;;;;;;;;27.38;41.76;99274.75;237327;1195;141242;-58
2022/08/12 15:39:16;;;;;;;9.50;8.50;;;;;;;27.23;42.15;99282.85;237146;1195;126728;-56
2022/08/12 15:44:19;;;;;;;6.80;4.70;;;;;;;27.09;42.44;99276.83;237061;1195;140488;-57
2022/08/12 15:49:42;;;;;;;7.00;5.20;;;;;;;26.93;42.58;99281.95;237037;1196;139658;-58
2022/08/12 15:55:02;;;;;;;7.80;5.20;;;;;;;26.77;42.87;99280.19;236622;1195;141884;-55
2022/08/12 16:00:14;;;;;;;41.30;37.10;;;;;;;26.63;43.27;99276.34;237364;1195;139707;-57
2022/08/12 16:05:41;;;;;;;8.00;6.60;;;;;;;26.52;43.69;99270.34;237014;1195;139361;-57
2022/08/12 16:11:05;;;;;;;;;;;;;;;26.43;43.90;99267.47;237060;1195;139646;-55
2022/08/12 16:16:17;;;;;;;136.80;118.40;;;;;;;26.26;44.08;99263.84;237182;1195;125699;-55
2022/08/12 16:21:27;;;;;;;10.20;9.00;;;;;;;26.15;44.51;99254.52;237182;1195;140052;-56
2022/08/12 16:26:51;;;;;;;8.60;5.40;;;;;;;26.13;44.51;99256.27;236961;1195;139418;-54
2022/08/12 16:31:57;;;;;;;6.40;5.60;;;;;;;26.11;44.92;99257.23;236889;1195;139709;-58
2022/08/12 16:37:03;;;;;;;7.90;5.80;;;;;;;26.10;45.23;99251.27;236996;1195;139255;-56
2022/08/12 16:42:09;;;;;;;20.10;18.10;;;;;;;26.09;45.44;99253.90;236913;1196;139899;-56
2022/08/12 16:47:12;;;;;;;20.50;18.00;;;;;;;26.08;45.70;99245.80;236904;1196;140101;-57
2022/08/12 16:52:16;;;;;;;8.90;6.40;;;;;;;26.06;45.71;99243.03;236976;1196;140540;-57
2022/08/12 16:57:20;;;;;;;10.00;5.60;;;;;;;26.02;45.71;99242.89;237086;1195;140311;-56
2022/08/12 17:02:38;;;;;;;129.10;96.10;;;;;;;25.89;45.91;99243.44;237320;1195;139922;-57
2022/08/12 17:07:43;;;;;;;10.30;7.30;;;;;;;25.79;46.23;99236.48;237215;1195;140536;-56
2022/08/12 17:12:53;;;;;;;5.20;4.70;;;;;;;25.72;46.55;99228.20;237216;1195;139827;-55
2022/08/12 17:18:03;;;;;;;5.80;4.90;;;;;;;25.70;46.64;99220.07;236790;1195;140028;-56
2022/08/12 17:23:28;;;;;;;9.30;4.80;;;;;;;25.64;46.74;99213.73;236751;1196;140807;-57
2022/08/12 17:28:52;;;;;;;5.60;4.60;;;;;;;25.54;47.01;99215.84;236825;1196;140014;-55
2022/08/12 17:33:56;;;;;;;5.60;4.70;;;;;;;25.44;47.23;99217.46;237088;1196;139180;-56
2022/08/12 17:39:03;;;;;;;5.40;4.90;;;;;;;25.37;47.37;99214.67;236998;1195;141683;-57
2022/08/12 17:44:11;;;;;;;7.20;4.70;;;;;;;25.31;47.60;99210.88;237032;1195;140129;-57
2022/08/12 17:49:18;;;;;;;5.30;4.40;;;;;;;25.25;47.84;99213.73;237133;1196;139720;-56
2022/08/12 17:54:43;;;;;;;6.50;5.00;;;;;;;25.19;48.10;99207.36;237039;1196;139664;-55
2022/08/12 17:59:48;;;;;;;8.00;5.40;;;;;;;25.13;48.31;99209.77;237115;1195;140156;-55
2022/08/12 18:04:53;;;;;;;7.40;5.00;;;;;;;25.09;48.50;99207.73;237292;1195;139668;-56
2022/08/12 18:12:35;;;;;;;5.50;4.90;;;;;;;25.03;48.70;99203.70;237008;1195;140254;-58
2022/08/12 18:15:37;;;;;;;8.70;4.90;;;;;;;24.96;49.07;99201.45;237040;1195;139461;-57
2022/08/12 18:21:06;;;;;;;126.10;106.50;;;;;;;24.90;49.46;99208.72;236902;1196;140071;-55
2022/08/12 18:26:23;;;;;;;15.20;10.50;;;;;;;24.86;49.55;99212.08;237161;1195;142265;-55
2022/08/12 18:31:34;;;;;;;10.70;8.60;;;;;;;24.79;49.71;99209.23;237012;1196;139917;-56
2022/08/12 18:36:58;;;;;;;11.00;6.90;;;;;;;24.71;49.84;99209.89;237070;1195;140258;-57
2022/08/12 18:42:23;;;;;;;7.40;6.00;;;;;;;24.62;50.05;99205.08;237203;1195;140190;-57
2022/08/12 18:47:30;;;;;;;6.30;5.10;;;;;;;24.55;50.16;99208.33;237175;1195;139645;-57
2022/08/12 18:52:53;;;;;;;;;;;;;;;24.45;50.32;99213.13;236882;1196;140893;-57
2022/08/12 18:58:02;;;;;;;8.80;6.30;;;;;;;24.30;50.47;99213.02;237129;1196;126179;-55
2022/08/12 19:03:13;;;;;;;7.90;5.90;;;;;;;24.17;50.81;99210.00;237039;1195;139743;-57
2022/08/12 19:08:40;;;;;;;;;;;;;;;24.06;51.08;99215.12;237112;1195;140076;-57
2022/08/12 19:19:13;;;;;;;136.70;102.90;;;;;;;23.84;51.65;99221.60;237258;1195;139385;-56
2022/08/12 19:29:43;;;;;;;11.20;8.10;;;;;;;23.82;52.26;99218.38;236869;1196;142211;-57
2022/08/12 19:35:07;;;;;;;12.40;9.70;;;;;;;23.78;52.51;99216.13;237326;1195;140493;-56
2022/08/12 19:40:33;;;;;;;9.60;6.90;;;;;;;23.73;52.61;99226.20;237122;1195;139415;-57
2022/08/12 19:45:40;;;;;;;14.70;7.30;;;;;;;23.67;52.85;99234.41;237198;1196;139688;-57
2022/08/12 19:50:56;;;;;;;9.50;7.60;;;;;;;23.65;53.04;99237.58;236989;1196;139865;-57
2022/08/12 19:55:59;;;;;;;9.40;7.30;;;;;;;23.62;53.22;99240.19;237391;1195;139431;-57
2022/08/12 20:01:05;;;;;;;9.70;6.80;;;;;;;23.58;53.36;99242.44;237267;1195;139777;-54
2022/08/12 20:06:13;;;;;;;7.30;6.30;;;;;;;23.56;53.52;99243.60;237141;1196;139399;-56
2022/08/12 20:11:26;;;;;;;8.70;6.80;;;;;;;23.57;53.69;99240.23;237092;1196;139681;-58
2022/08/12 20:16:50;;;;;;;9.60;7.20;;;;;;;23.59;53.91;99236.19;237309;1194;140047;-52
2022/08/12 20:22:07;;;;;;;10.90;7.20;;;;;;;23.59;53.83;99232.17;237210;1195;139622;-56
2022/08/12 20:27:16;;;;;;;9.70;7.70;;;;;;;23.54;53.84;99228.30;237170;1195;139875;-57
2022/08/12 20:32:31;;;;;;;;;;;;;;;23.45;53.79;99225.98;237192;1195;140886;-56
2022/08/12 20:37:49;;;;;;;13.20;6.90;;;;;;;23.36;54.05;99229.58;237267;1195;129031;-57
2022/08/12 20:43:13;;;;;;;8.90;7.60;;;;;;;23.28;54.07;99238.02;237072;1196;145020;-57
2022/08/12 20:48:23;;;;;;;11.50;8.00;;;;;;;23.20;54.21;99242.73;237116;1195;140220;-56
2022/08/12 20:53:28;;;;;;;11.60;8.60;;;;;;;23.12;54.40;99245.59;237166;1195;139660;-57
2022/08/12 20:58:55;;;;;;;9.10;8.10;;;;;;;23.03;54.43;99251.91;237024;1196;139895;-56
2022/08/12 21:09:22;;;;;;;11.20;8.30;;;;;;;22.94;54.86;99250.35;237242;1195;139990;-56
2022/08/12 21:14:32;;;;;;;9.80;7.80;;;;;;;22.91;54.95;99248.96;237221;1195;139706;-56
2022/08/12 21:20:03;;;;;;;9.50;8.20;;;;;;;22.87;55.20;99244.04;237178;1196;139372;-56
2022/08/12 21:25:13;;;;;;;11.10;8.00;;;;;;;22.80;55.32;99246.08;237405;1195;139515;-56
2022/08/12 21:30:19;;;;;;;11.30;7.60;;;;;;;22.75;55.52;99250.81;237272;1195;139532;-56
2022/08/12 21:35:29;;;;;;;12.70;8.60;;;;;;;22.66;55.52;99256.16;237109;1195;140815;-55
2022/08/12 21:40:37;;;;;;;10.90;8.20;;;;;;;22.56;55.73;99247.39;236907;1196;139490;-57
2022/08/12 21:45:54;;;;;;;10.70;8.50;;;;;;;22.44;55.85;99243.44;236880;1196;140258;-57
2022/08/12 21:51:03;;;;;;;10.70;9.30;;;;;;;22.33;56.10;99235.48;237311;1196;139674;-57
2022/08/12 21:56:26;;;;;;;11.00;8.00;;;;;;;22.23;56.31;99237.61;236867;1196;139413;-57
2022/08/12 22:01:37;;;;;;;15.70;8.60;;;;;;;22.17;56.41;99239.13;236981;1196;140022;-57
2022/08/12 22:06:52;;;;;;;10.80;8.50;;;;;;;22.11;56.67;99241.25;237366;1196;139740;-57
2022/08/12 22:17:32;;;;;;;11.10;9.00;;;;;;;21.96;57.11;99237.18;236838;1196;139641;-57
2022/08/12 22:22:52;;;;;;;10.80;9.00;;;;;;;21.94;57.32;99238.67;236841;1196;139643;-57
2022/08/12 22:33:27;;;;;;;9.30;8.30;;;;;;;21.83;57.48;99230.80;236911;1196;141304;-56
2022/08/12 22:38:34;;;;;;;11.70;8.80;;;;;;;21.79;57.79;99230.67;236878;1196;139852;-57
2022/08/12 22:49:03;;;;;;;9.90;8.40;;;;;;;21.87;58.21;99212.21;237062;1197;139902;-59
2022/08/12 22:54:10;;;;;;;10.50;8.80;;;;;;;21.81;58.16;99210.27;237020;1196;139389;-57
2022/08/12 22:59:34;;;;;;;10.50;8.70;;;;;;;21.71;58.22;99222.52;237375;1196;140038;-57
2022/08/12 23:04:57;;;;;;;10.10;8.50;;;;;;;21.63;58.43;99217.36;237076;1196;142007;-56
2022/08/12 23:10:00;;;;;;;11.10;7.90;;;;;;;21.64;58.82;99209.17;236961;1196;139934;-58
2022/08/12 23:15:04;;;;;;;9.90;8.40;;;;;;;21.70;59.00;99196.86;237074;1196;139654;-57
2022/08/12 23:20:08;;;;;;;10.00;8.90;;;;;;;21.72;59.04;99185.36;237352;1196;140396;-57
2022/08/12 23:25:12;;;;;;;10.60;9.00;;;;;;;21.73;59.12;99183.10;237115;1196;141457;-57
2022/08/12 23:30:25;;;;;;;10.50;9.20;;;;;;;21.68;59.08;99175.56;236998;1196;139416;-59
2022/08/12 23:35:34;;;;;;;11.00;9.90;;;;;;;21.61;59.06;99174.89;237043;1196;139824;-55
2022/08/12 23:40:59;;;;;;;9.60;8.60;;;;;;;21.55;59.28;99171.75;236965;1196;139813;-57
2022/08/12 23:46:05;;;;;;;12.60;8.60;;;;;;;21.55;59.47;99167.20;236983;1196;140734;-58
2022/08/12 23:51:10;;;;;;;11.80;9.20;;;;;;;21.58;59.57;99167.79;236922;1196;140233;-58
2022/08/12 23:56:26;;;;;;;12.00;9.60;;;;;;;21.57;59.70;99160.68;237091;1196;230282;-57
